Latest Weather Observations for Cerberus

IDV60801

Issued at 3:42 pm EST Wednesday 20 June 2018 (issued every 10 minutes, with the page automatically refreshed every 10 minutes)

About weather observations | Map of weather stations | Latest weather observations for VIC | Other Formats
Station Details ID: 086361 Name: CERBERUS Lat: -38.36 Lon: 145.18 Height: 12.69 m
Data from the previous 72 hours. | See also: Recent months at Cerberus
Date/Time
EST
Temp
°C
App
Temp
°C
Dew
Point
°C
Rel
Hum
%
Delta-T
°C
Wind Press
QNH
hPa
Press
MSL
hPa
Rain since
9am
mm
Dir  Spd
km/h
Gust
km/h
Spd
kts
Gust
kts
20/03:30pm 13.7 10.9 5.1 56 4.0 N 9 19 5 10 1025.8 1025.8 0.0
20/03:00pm 13.0 10.8 7.9 71 2.5 ENE 9 13 5 7 1026.0 1026.0 0.0
20/02:30pm 12.1 9.8 7.4 73 2.3 NNE 9 15 5 8 1026.1 1026.1 0.0
20/02:00pm 11.9 9.2 7.2 73 2.2 NE 11 19 6 10 1026.1 1026.1 0.0
20/01:30pm 11.3 9.4 7.4 77 1.9 NE 7 13 4 7 1026.6 1026.6 0.0
20/01:00pm 10.7 8.7 7.2 79 1.7 NE 7 15 4 8 1026.9 1026.9 0.0
20/12:30pm 10.4 8.4 6.9 79 1.7 NNE 7 13 4 7 1027.2 1027.2 0.0
20/12:00pm 10.2 8.1 6.7 79 1.6 NNE 7 9 4 5 1027.7 1027.7 0.0
20/11:30am 9.8 8.0 7.1 83 1.3 NNE 6 9 3 5 1028.1 1028.1 0.0
20/11:00am 8.6 6.5 6.6 87 0.9 NNE 7 11 4 6 1028.5 1028.5 0.0
20/10:30am 8.7 6.7 7.3 91 0.7 NNE 7 13 4 7 1028.5 1028.5 0.0
20/10:00am 7.2 5.0 6.0 92 0.5 NNE 7 15 4 8 1028.4 1028.4 0.0
20/09:30am 6.3 4.1 5.3 93 0.4 N 6 9 3 5 1028.4 1028.4 0.0
20/09:00am 4.4 2.2 3.2 92 0.5 NNE 4 6 2 3 1028.4 1028.4 0.0
20/08:30am 4.2 2.3 3.0 92 0.5 NNE 2 4 1 2 1028.4 1028.4 0.0
20/08:00am 3.8 2.2 2.6 92 0.5 CALM 0 0 0 0 1028.2 1028.2 0.0
20/07:30am 3.1 0.7 1.9 92 0.5 NNE 4 4 2 2 1028.0 1028.0 0.0
20/07:00am 3.2 1.5 2.0 92 0.5 CALM 0 0 0 0 1028.0 1028.0 0.0
20/06:30am 2.0 -0.6 0.7 91 0.5 NNE 4 7 2 4 1027.8 1027.8 0.0
20/06:00am 4.0 1.7 2.7 91 0.5 N 4 4 2 2 1027.5 1027.5 0.0
20/05:30am 4.3 2.4 3.1 92 0.5 N 2 6 1 3 1027.3 1027.3 0.0
20/05:00am 3.5 1.5 2.2 91 0.5 N 2 4 1 2 1027.0 1027.0 0.0
20/04:30am 4.5 3.0 3.2 91 0.5 CALM 0 0 0 0 1026.8 1026.8 0.0
20/04:00am 4.8 3.0 3.5 91 0.5 N 2 4 1 2 1027.0 1027.0 0.0
20/03:30am 5.7 3.3 4.3 91 0.6 N 6 7 3 4 1027.0 1027.0 0.0
20/03:00am 6.2 3.9 4.8 91 0.6 N 6 7 3 4 1027.1 1027.1 0.0
20/02:30am 5.9 3.9 4.5 91 0.6 N 4 7 2 4 1027.0 1027.0 0.0
20/02:00am 6.7 4.9 5.2 90 0.7 NNE 4 7 2 4 1026.8 1026.8 0.0
20/01:30am 6.0 4.0 4.5 90 0.6 NNE 4 7 2 4 1026.9 1026.9 0.0
20/01:00am 6.1 3.8 4.6 90 0.6 N 6 7 3 4 1027.0 1027.0 0.0
20/12:30am 6.5 4.6 4.8 89 0.7 N 4 6 2 3 1026.9 1026.9 0.0
20/12:00am 7.0 4.8 5.3 89 0.7 N 6 9 3 5 1027.2 1027.2 0.0
 
Date/Time
EST
Temp
°C
App
Temp
°C
Dew
Point
°C
Rel
Hum
%
Delta-T
°C
Wind Press
QNH
hPa
Press
MSL
hPa
Rain since
9am
mm
Dir  Spd
km/h
Gust
km/h
Spd
kts
Gust
kts
19/11:30pm 8.0 6.0 6.1 88 0.9 NNE 6 11 3 6 1027.2 1027.2 0.0
19/11:00pm 8.5 6.0 6.6 88 0.9 NNE 9 15 5 8 1027.4 1027.4 0.0
19/10:30pm 8.6 6.5 6.6 87 0.9 NE 7 11 4 6 1027.4 1027.4 0.0
19/10:00pm 8.7 6.6 6.5 86 1.0 NE 7 11 4 6 1027.5 1027.5 0.0
19/09:30pm 8.8 6.6 6.4 85 1.1 NE 7 13 4 7 1028.0 1028.0 0.0
19/09:00pm 9.1 7.2 6.7 85 1.1 NNE 6 9 3 5 1028.3 1028.3 0.0
19/08:30pm 9.3 7.4 6.9 85 1.1 NNE 6 9 3 5 1028.3 1028.3 0.0
19/08:00pm 9.3 7.4 6.9 85 1.1 NE 6 9 3 5 1028.1 1028.1 0.0
19/07:30pm 8.7 6.8 6.7 87 0.9 NNE 6 9 3 5 1027.8 1027.8 0.0
19/07:00pm 7.6 5.4 5.4 86 1.0 ENE 6 7 3 4 1027.6 1027.6 0.0
19/06:30pm 7.4 5.1 5.0 85 1.1 ENE 6 6 3 3 1027.4 1027.4 0.0
19/06:00pm 8.1 6.6 5.0 81 1.4 ENE 2 4 1 2 1027.0 1027.0 0.0
19/05:30pm 9.6 7.8 5.6 76 1.8 ENE 4 7 2 4 1026.8 1026.8 0.0
19/05:00pm 11.5 9.9 6.4 71 2.4 ENE 4 7 2 4 1026.9 1026.9 0.0
19/04:30pm 12.7 10.3 7.0 68 2.7 ENE 9 15 5 8 1027.0 1027.0 0.0
19/04:00pm 13.2 10.5 7.2 67 2.9 ENE 11 17 6 9 1027.0 1027.0 0.0
19/03:30pm 13.4 11.0 7.0 65 3.1 NE 9 15 5 8 1027.2 1027.2 0.0
19/03:00pm 13.2 10.0 6.8 65 3.1 ENE 13 20 7 11 1027.3 1027.3 0.0
19/02:30pm 13.2 9.1 6.1 62 3.4 NE 17 28 9 15 1027.1 1027.1 0.0
19/02:00pm 13.7 10.4 6.6 62 3.4 NE 13 22 7 12 1026.8 1026.8 0.0
19/01:30pm 13.4 10.1 6.3 62 3.4 NE 13 24 7 13 1026.8 1026.8 0.0
19/01:00pm 13.3 10.0 6.6 64 3.2 E 13 20 7 11 1027.0 1027.0 0.0
19/12:30pm 12.9 9.3 6.7 66 3.0 E 15 24 8 13 1027.1 1027.1 0.0
19/12:00pm 12.6 9.3 6.6 67 2.8 E 13 22 7 12 1027.8 1027.8 0.0
19/11:30am 12.3 9.2 7.2 71 2.5 E 13 19 7 10 1028.2 1028.2 0.0
19/11:00am 11.2 8.6 7.7 79 1.7 E 11 15 6 8 1029.0 1029.0 0.0
19/10:30am 10.7 8.4 7.4 80 1.6 ENE 9 15 5 8 1029.5 1029.5 0.0
19/10:00am 10.3 8.7 8.2 87 1.0 ENE 6 9 3 5 1030.0 1030.0 0.0
19/09:30am 9.3 8.9 8.1 92 0.6 CALM 0 0 0 0 1030.2 1030.2 0.0
19/09:00am 7.7 6.9 6.6 93 0.5 CALM 0 0 0 0 1030.4 1030.4 0.0
19/08:30am 5.5 4.2 4.3 92 0.5 CALM 0 0 0 0 1030.1 1030.1 0.0
19/08:00am 4.7 3.3 3.4 91 0.5 CALM 0 0 0 0 1029.8 1029.8 0.0
19/07:30am 5.3 4.0 4.1 92 0.5 CALM 0 0 0 0 1029.7 1029.7 0.0
19/07:00am 4.5 3.1 3.3 92 0.5 CALM 0 0 0 0 1029.4 1029.4 0.0
19/06:30am 4.4 2.2 3.2 92 0.5 N 4 6 2 3 1028.7 1028.7 0.0
19/06:00am 4.3 2.4 3.1 92 0.5 N 2 6 1 3 1028.7 1028.7 0.0
19/05:30am 1.5 -1.6 0.2 91 0.5 NE 6 6 3 3 1028.7 1028.7 0.0
19/05:00am 1.6 -0.7 0.3 91 0.5 SW 2 2 1 1 1028.2 1028.2 0.0
19/04:30am 1.4 -0.6 0.1 91 0.5 CALM 0 0 0 0 1028.1 1028.1 0.0
19/04:00am 1.7 -0.3 0.2 90 0.5 CALM 0 0 0 0 1027.7 1027.7 0.0
19/03:30am 1.9 0.0 0.4 90 0.6 CALM 0 0 0 0 1027.9 1027.9 0.0
19/03:00am 2.9 1.2 1.6 91 0.5 CALM 0 0 0 0 1028.2 1028.2 0.0
19/02:30am 3.1 0.6 1.8 91 0.5 SW 4 4 2 2 1028.4 1028.4 0.0
19/02:00am 2.1 0.2 0.6 90 0.6 CALM 0 6 0 3 1028.3 1028.3 0.0
19/01:30am 2.6 0.4 1.1 90 0.6 SW 2 6 1 3 1028.2 1028.2 0.0
19/01:00am 2.4 0.6 0.9 90 0.6 CALM 0 0 0 0 1028.3 1028.3 0.0
19/12:30am 2.4 0.5 0.8 89 0.6 CALM 0 0 0 0 1028.4 1028.4 0.0
19/12:00am 3.0 1.2 1.5 90 0.6 CALM 0 0 0 0 1028.5 1028.5 0.0
 
Date/Time
EST
Temp
°C
App
Temp
°C
Dew
Point
°C
Rel
Hum
%
Delta-T
°C
Wind Press
QNH
hPa
Press
MSL
hPa
Rain since
9am
mm
Dir  Spd
km/h
Gust
km/h
Spd
kts
Gust
kts
18/11:30pm 2.8 1.0 1.2 89 0.6 CALM 0 4 0 2 1028.4 1028.4 0.0
18/11:00pm 3.6 1.9 2.0 89 0.6 CALM 0 0 0 0 1028.4 1028.4 0.0
18/10:30pm 4.0 2.4 2.4 89 0.6 CALM 0 2 0 1 1028.4 1028.4 0.0
18/10:00pm 3.8 2.1 2.0 88 0.7 CALM 0 0 0 0 1028.3 1028.3 0.0
18/09:30pm 4.5 2.9 2.5 87 0.8 CALM 0 0 0 0 1028.3 1028.3 0.0
18/09:00pm 4.9 3.4 2.9 87 0.8 CALM 0 0 0 0 1028.2 1028.2 0.0
18/08:30pm 5.5 4.1 3.3 86 0.9 CALM 0 0 0 0 1028.3 1028.3 0.0
18/08:00pm 5.7 4.3 3.4 85 1.0 CALM 0 2 0 1 1028.1 1028.1 0.0
18/07:30pm 7.0 5.4 4.5 84 1.1 SW 2 6 1 3 1028.0 1028.0 0.0
18/07:00pm 7.5 6.3 4.8 83 1.2 CALM 0 4 0 2 1027.7 1027.7 0.0
18/06:30pm 7.4 5.4 4.5 82 1.3 SW 4 4 2 2 1027.4 1027.4 0.0
18/06:00pm 7.7 6.0 3.9 77 1.6 SW 2 4 1 2 1027.2 1027.2 0.0
18/05:30pm 8.9 6.9 4.5 74 1.9 SW 4 6 2 3 1027.0 1027.0 0.0
18/05:00pm 9.8 7.5 4.8 71 2.2 SW 6 7 3 4 1026.8 1026.8 0.0
18/04:30pm 10.8 8.4 5.1 68 2.6 SSW 7 11 4 6 1026.8 1026.8 0.0
18/04:00pm 11.3 8.5 5.0 65 2.9 SSW 9 15 5 8 1026.6 1026.6 0.0
18/03:30pm 11.4 8.5 4.6 63 3.1 SSW 9 15 5 8 1026.4 1026.4 0.0
18/03:00pm 11.4 8.1 4.6 63 3.1 SSW 11 17 6 9 1026.2 1026.2 0.0
18/02:30pm 11.6 7.9 4.6 62 3.2 SSW 13 19 7 10 1026.0 1026.0 0.0
18/02:00pm 11.7 8.1 4.9 63 3.1 SSW 13 19 7 10 1025.9 1025.9 0.0
18/01:30pm 12.5 7.7 4.7 59 3.6 SW 19 28 10 15 1025.8 1025.8 0.0
18/01:00pm 12.2 7.8 4.7 60 3.4 SSW 17 28 9 15 1026.0 1026.0 0.0
18/12:30pm 12.5 7.9 5.4 62 3.3 SSW 19 26 10 14 1026.3 1026.3 0.0
18/12:00pm 12.1 7.2 5.3 63 3.1 SSW 20 32 11 17 1026.5 1026.5 0.0
18/11:30am 12.6 7.6 4.8 59 3.6 SW 20 30 11 16 1026.5 1026.5 0.0
18/11:00am 11.8 6.8 4.5 61 3.3 SSW 20 33 11 18 1026.4 1026.4 0.0
18/10:30am 11.8 7.1 5.2 64 3.0 SSW 19 32 10 17 1026.6 1026.6 0.0
18/10:00am 12.1 7.7 4.8 61 3.3 SSW 17 26 9 14 1026.5 1026.5 0.0
18/09:30am 11.9 7.5 4.9 62 3.2 SSW 17 28 9 15 1026.3 1026.3 0.0
18/09:00am 11.7 7.7 5.1 64 3.0 S 15 24 8 13 1025.8 1025.8 0.0
18/08:30am 10.8 6.8 4.7 66 2.8 S 15 22 8 12 1025.7 1025.7 0.0
18/08:00am 10.7 6.6 4.6 66 2.7 S 15 26 8 14 1025.2 1025.2 0.0
18/07:30am 10.7 6.3 4.8 67 2.7 S 17 28 9 15 1025.0 1025.0 0.0
18/07:00am 10.9 6.2 5.2 68 2.6 S 19 28 10 15 1024.7 1024.7 0.0
18/06:30am 10.9 6.2 5.0 67 2.7 S 19 30 10 16 1024.3 1024.3 0.0
18/06:00am 11.0 6.1 5.1 67 2.7 S 20 30 11 16 1024.0 1024.0 0.0
18/05:30am 11.1 6.2 5.2 67 2.7 S 20 30 11 16 1023.7 1023.7 0.0
18/05:00am 11.1 6.3 5.4 68 2.6 S 20 35 11 19 1023.6 1023.6 0.0
18/04:30am 11.3 6.2 5.8 69 2.6 S 22 33 12 18 1023.4 1023.4 0.0
18/04:00am 11.3 6.8 6.0 70 2.5 SSW 19 32 10 17 1023.2 1023.2 0.0
18/03:30am 11.4 6.7 5.9 69 2.6 S 20 32 11 17 1022.8 1022.8 0.0
18/03:00am 11.5 6.5 6.4 71 2.4 S 22 35 12 19 1022.9 1022.9 0.0
18/02:30am 11.5 6.5 6.4 71 2.4 SSW 22 35 12 19 1022.8 1022.8 0.0
18/02:00am 11.5 6.9 6.4 71 2.4 SSW 20 32 11 17 1022.6 1022.6 0.0
18/01:30am 11.6 6.6 6.5 71 2.4 S 22 37 12 20 1022.2 1022.2 0.0
18/01:00am 11.6 6.6 6.5 71 2.4 SSW 22 35 12 19 1021.9 1021.9 0.0
18/12:30am 11.8 6.1 6.5 70 2.5 SSW 26 39 14 21 1021.8 1021.8 0.0
18/12:00am 11.6 5.9 6.5 71 2.4 S 26 41 14 22 1021.7 1021.7 0.0
 
Date/Time
EST
Temp
°C
App
Temp
°C
Dew
Point
°C
Rel
Hum
%
Delta-T
°C
Wind Press
QNH
hPa
Press
MSL
hPa
Rain since
9am
mm
Dir  Spd
km/h
Gust
km/h
Spd
kts
Gust
kts
17/11:30pm 11.8 6.1 6.7 71 2.4 S 26 41 14 22 1021.4 1021.4 0.0
17/11:00pm 11.8 6.5 6.7 71 2.4 S 24 43 13 23 1021.2 1021.2 0.0
17/10:33pm 12.0 6.0 7.1 72 2.4 S 28 48 15 26 1020.9 1020.9 0.0
17/10:30pm 11.9 6.3 7.0 72 2.3 S 26 37 14 20 1021.0 1021.0 0.0
17/10:10pm 11.9 5.8 6.8 71 2.4 S 28 48 15 26 1020.7 1020.7 0.0
17/10:00pm 12.1 6.1 7.2 72 2.4 S 28 44 15 24 1020.8 1020.8 0.0
17/09:32pm 12.1 6.2 7.4 73 2.3 S 28 50 15 27 1020.5 1020.5 0.0
17/09:30pm 12.1 6.6 7.4 73 2.3 S 26 41 14 22 1020.4 1020.4 0.0
17/09:00pm 11.9 6.3 7.0 72 2.3 S 26 39 14 21 1020.2 1020.2 0.0
17/08:30pm 12.3 6.8 7.6 73 2.3 S 26 39 14 21 1019.8 1019.8 0.0
17/08:00pm 12.2 7.1 7.7 74 2.2 SSW 24 43 13 23 1019.6 1019.6 0.0
17/07:30pm 12.3 6.8 7.6 73 2.3 SSW 26 43 14 23 1019.3 1019.3 0.0
17/07:00pm 12.4 7.8 8.3 76 2.0 SSW 22 35 12 19 1018.9 1018.9 0.0
17/06:30pm 12.4 7.4 7.9 74 2.2 S 24 41 13 22 1018.2 1018.2 0.0
17/06:00pm 12.4 7.8 8.1 75 2.1 SSW 22 35 12 19 1017.7 1017.7 0.0
17/05:30pm 12.5 7.9 8.2 75 2.1 SSW 22 33 12 18 1017.2 1017.2 0.0
17/05:00pm 12.6 7.6 7.9 73 2.3 SSW 24 39 13 21 1016.9 1016.9 0.0
17/04:30pm 12.7 6.9 7.8 72 2.4 S 28 41 15 22 1016.3 1016.3 0.0
17/04:06pm 12.9 7.2 8.2 73 2.3 SSW 28 46 15 25 1015.9 1015.9 0.0
17/04:00pm 12.9 6.7 8.0 72 2.4 SSW 30 46 16 25 1015.8 1015.8 0.0

Other Formats:

Comma delimited format used in spreadsheet applications
http://www.bom.gov.au/fwo/IDV60801/IDV60801.94898.axf

JavaScript Object Notation format (JSON) in row-major order
http://www.bom.gov.au/fwo/IDV60801/IDV60801.94898.json